sensor_id;sensor_type;location;lat;lon;timestamp;pressure;altitude;pressure_sealevel;temperature;humidity
11049;BME280;5577;42.706;23.160;2023-03-20T00:02:43;94448.28;;;3.63;100.00
11049;BME280;5577;42.706;23.160;2023-03-20T00:05:29;94436.38;;;3.57;100.00
11049;BME280;5577;42.706;23.160;2023-03-20T00:08:13;94448.13;;;3.46;100.00
11049;BME280;5577;42.706;23.160;2023-03-20T00:10:58;94448.53;;;3.39;100.00
11049;BME280;5577;42.706;23.160;2023-03-20T00:13:42;94449.00;;;3.41;100.00
11049;BME280;5577;42.706;23.160;2023-03-20T00:16:31;94436.09;;;3.45;100.00
11049;BME280;5577;42.706;23.160;2023-03-20T00:19:20;94439.56;;;3.54;100.00
11049;BME280;5577;42.706;23.160;2023-03-20T00:22:08;94441.72;;;3.52;100.00
11049;BME280;5577;42.706;23.160;2023-03-20T00:24:52;94440.91;;;3.65;100.00
11049;BME280;5577;42.706;23.160;2023-03-20T00:27:37;94437.16;;;3.57;100.00
11049;BME280;5577;42.706;23.160;2023-03-20T00:30:27;94430.97;;;3.53;100.00
11049;BME280;5577;42.706;23.160;2023-03-20T00:33:12;94430.16;;;3.53;100.00
11049;BME280;5577;42.706;23.160;2023-03-20T00:35:56;94431.53;;;3.37;100.00
11049;BME280;5577;42.706;23.160;2023-03-20T00:38:41;94424.97;;;3.39;100.00
11049;BME280;5577;42.706;23.160;2023-03-20T00:47:18;94432.81;;;3.26;100.00
11049;BME280;5577;42.706;23.160;2023-03-20T00:50:12;94424.78;;;3.08;100.00
11049;BME280;5577;42.706;23.160;2023-03-20T00:52:58;94418.22;;;3.11;100.00
11049;BME280;5577;42.706;23.160;2023-03-20T00:55:42;94415.88;;;2.96;100.00
11049;BME280;5577;42.706;23.160;2023-03-20T00:58:26;94413.06;;;3.06;100.00
11049;BME280;5577;42.706;23.160;2023-03-20T01:01:10;94396.53;;;2.97;100.00
11049;BME280;5577;42.706;23.160;2023-03-20T01:03:53;94398.06;;;3.12;100.00
11049;BME280;5577;42.706;23.160;2023-03-20T01:06:37;94408.13;;;3.32;100.00
11049;BME280;5577;42.706;23.160;2023-03-20T01:09:21;94400.78;;;3.07;100.00
11049;BME280;5577;42.706;23.160;2023-03-20T01:12:05;94410.84;;;3.13;100.00
11049;BME280;5577;42.706;23.160;2023-03-20T01:14:53;94420.47;;;3.04;100.00
11049;BME280;5577;42.706;23.160;2023-03-20T01:17:38;94399.81;;;3.03;100.00
11049;BME280;5577;42.706;23.160;2023-03-20T01:20:25;94399.59;;;3.13;100.00
11049;BME280;5577;42.706;23.160;2023-03-20T01:23:09;94403.88;;;3.08;100.00
11049;BME280;5577;42.706;23.160;2023-03-20T01:25:54;94402.72;;;3.15;100.00
11049;BME280;5577;42.706;23.160;2023-03-20T01:28:38;94403.28;;;3.12;100.00
11049;BME280;5577;42.706;23.160;2023-03-20T01:31:22;94405.13;;;2.97;100.00
11049;BME280;5577;42.706;23.160;2023-03-20T01:34:09;94396.91;;;3.04;100.00
11049;BME280;5577;42.706;23.160;2023-03-20T01:36:56;94401.56;;;2.93;100.00
11049;BME280;5577;42.706;23.160;2023-03-20T01:39:40;94400.09;;;2.87;100.00
11049;BME280;5577;42.706;23.160;2023-03-20T01:42:24;94407.75;;;2.84;100.00
11049;BME280;5577;42.706;23.160;2023-03-20T01:45:21;94409.78;;;2.60;100.00
11049;BME280;5577;42.706;23.160;2023-03-20T01:48:14;94420.34;;;2.55;100.00
11049;BME280;5577;42.706;23.160;2023-03-20T01:50:59;94413.06;;;2.52;100.00
11049;BME280;5577;42.706;23.160;2023-03-20T01:53:45;94407.84;;;2.52;100.00
11049;BME280;5577;42.706;23.160;2023-03-20T01:56:32;94407.75;;;2.57;100.00
11049;BME280;5577;42.706;23.160;2023-03-20T01:59:34;94402.78;;;2.55;100.00
11049;BME280;5577;42.706;23.160;2023-03-20T02:02:25;94399.50;;;2.50;100.00
11049;BME280;5577;42.706;23.160;2023-03-20T02:05:12;94395.94;;;2.59;100.00
11049;BME280;5577;42.706;23.160;2023-03-20T02:08:15;94403.28;;;2.71;100.00
11049;BME280;5577;42.706;23.160;2023-03-20T02:11:01;94405.16;;;2.84;100.00
11049;BME280;5577;42.706;23.160;2023-03-20T02:13:49;94392.28;;;2.60;100.00
11049;BME280;5577;42.706;23.160;2023-03-20T02:16:34;94402.22;;;2.72;100.00
11049;BME280;5577;42.706;23.160;2023-03-20T02:29:14;94398.94;;;2.53;100.00
11049;BME280;5577;42.706;23.160;2023-03-20T02:44:33;94399.44;;;2.82;100.00
11049;BME280;5577;42.706;23.160;2023-03-20T02:51:00;94400.22;;;2.82;100.00
11049;BME280;5577;42.706;23.160;2023-03-20T02:53:45;94380.34;;;2.54;100.00
11049;BME280;5577;42.706;23.160;2023-03-20T02:56:44;94402.44;;;2.75;100.00
11049;BME280;5577;42.706;23.160;2023-03-20T02:59:32;94394.38;;;2.72;100.00
11049;BME280;5577;42.706;23.160;2023-03-20T03:02:38;94357.59;;;2.41;100.00
11049;BME280;5577;42.706;23.160;2023-03-20T03:05:37;94398.66;;;2.68;100.00
11049;BME280;5577;42.706;23.160;2023-03-20T03:08:28;94393.81;;;2.75;100.00
11049;BME280;5577;42.706;23.160;2023-03-20T03:11:15;94370.47;;;2.51;100.00
11049;BME280;5577;42.706;23.160;2023-03-20T03:14:01;94404.72;;;2.63;100.00
11049;BME280;5577;42.706;23.160;2023-03-20T03:16:47;94391.09;;;2.53;100.00
11049;BME280;5577;42.706;23.160;2023-03-20T03:19:35;94392.84;;;2.71;100.00
11049;BME280;5577;42.706;23.160;2023-03-20T03:22:21;94390.81;;;2.54;100.00
11049;BME280;5577;42.706;23.160;2023-03-20T03:25:05;94395.75;;;2.56;100.00
11049;BME280;5577;42.706;23.160;2023-03-20T03:27:57;94390.03;;;2.54;100.00
11049;BME280;5577;42.706;23.160;2023-03-20T03:30:43;94389.66;;;2.60;100.00
11049;BME280;5577;42.706;23.160;2023-03-20T03:33:30;94378.81;;;2.53;100.00
11049;BME280;5577;42.706;23.160;2023-03-20T03:42:24;94394.28;;;2.50;100.00
11049;BME280;5577;42.706;23.160;2023-03-20T03:45:14;94387.97;;;2.51;100.00
11049;BME280;5577;42.706;23.160;2023-03-20T03:50:57;94380.88;;;2.24;100.00
11049;BME280;5577;42.706;23.160;2023-03-20T03:53:54;94395.91;;;2.32;100.00
11049;BME280;5577;42.706;23.160;2023-03-20T03:56:43;94379.06;;;2.38;100.00
11049;BME280;5577;42.706;23.160;2023-03-20T03:59:40;94379.97;;;2.47;100.00
11049;BME280;5577;42.706;23.160;2023-03-20T04:02:25;94378.03;;;2.39;100.00
11049;BME280;5577;42.706;23.160;2023-03-20T04:05:10;94377.81;;;2.36;100.00
11049;BME280;5577;42.706;23.160;2023-03-20T04:08:01;94368.53;;;2.43;100.00
11049;BME280;5577;42.706;23.160;2023-03-20T04:10:46;94373.47;;;2.45;100.00
11049;BME280;5577;42.706;23.160;2023-03-20T04:13:30;94361.28;;;2.40;100.00
11049;BME280;5577;42.706;23.160;2023-03-20T04:16:14;94347.13;;;2.28;100.00
11049;BME280;5577;42.706;23.160;2023-03-20T04:18:59;94358.28;;;2.47;100.00
11049;BME280;5577;42.706;23.160;2023-03-20T04:21:43;94318.00;;;2.21;100.00
11049;BME280;5577;42.706;23.160;2023-03-20T04:24:28;94369.13;;;2.54;100.00
11049;BME280;5577;42.706;23.160;2023-03-20T04:27:13;94361.84;;;2.51;100.00
11049;BME280;5577;42.706;23.160;2023-03-20T04:29:57;94374.91;;;2.37;100.00
11049;BME280;5577;42.706;23.160;2023-03-20T04:32:41;94375.84;;;2.14;100.00
11049;BME280;5577;42.706;23.160;2023-03-20T04:35:25;94388.59;;;2.16;100.00
11049;BME280;5577;42.706;23.160;2023-03-20T04:38:09;94385.50;;;2.14;100.00
11049;BME280;5577;42.706;23.160;2023-03-20T04:40:54;94379.38;;;2.05;100.00
11049;BME280;5577;42.706;23.160;2023-03-20T04:43:38;94386.38;;;2.23;100.00
11049;BME280;5577;42.706;23.160;2023-03-20T04:46:23;94376.78;;;2.05;100.00
11049;BME280;5577;42.706;23.160;2023-03-20T04:49:07;94384.94;;;2.17;100.00
11049;BME280;5577;42.706;23.160;2023-03-20T04:51:52;94400.56;;;2.35;100.00
11049;BME280;5577;42.706;23.160;2023-03-20T04:54:36;94401.38;;;2.49;100.00
11049;BME280;5577;42.706;23.160;2023-03-20T04:57:20;94398.56;;;2.73;100.00
11049;BME280;5577;42.706;23.160;2023-03-20T05:00:04;94390.44;;;2.88;100.00
11049;BME280;5577;42.706;23.160;2023-03-20T05:02:48;94401.72;;;3.38;100.00
11049;BME280;5577;42.706;23.160;2023-03-20T05:05:32;94407.19;;;3.50;100.00
11049;BME280;5577;42.706;23.160;2023-03-20T05:08:20;94403.88;;;3.58;100.00
11049;BME280;5577;42.706;23.160;2023-03-20T05:11:04;94415.53;;;3.52;100.00
11049;BME280;5577;42.706;23.160;2023-03-20T05:13:49;94417.50;;;3.46;100.00
11049;BME280;5577;42.706;23.160;2023-03-20T05:16:33;94406.50;;;3.58;100.00
11049;BME280;5577;42.706;23.160;2023-03-20T05:19:17;94421.81;;;3.64;100.00
11049;BME280;5577;42.706;23.160;2023-03-20T05:22:01;94417.78;;;3.80;100.00
11049;BME280;5577;42.706;23.160;2023-03-20T05:24:45;94411.06;;;3.88;100.00
11049;BME280;5577;42.706;23.160;2023-03-20T05:27:29;94325.63;;;3.34;100.00
11049;BME280;5577;42.706;23.160;2023-03-20T05:30:14;94376.09;;;3.70;100.00
11049;BME280;5577;42.706;23.160;2023-03-20T05:32:58;94406.25;;;4.03;100.00
11049;BME280;5577;42.706;23.160;2023-03-20T05:35:42;94428.44;;;4.28;100.00
11049;BME280;5577;42.706;23.160;2023-03-20T05:38:27;94349.50;;;3.99;100.00
11049;BME280;5577;42.706;23.160;2023-03-20T05:41:10;94415.69;;;4.65;100.00
11049;BME280;5577;42.706;23.160;2023-03-20T05:43:54;94414.53;;;4.80;100.00
11049;BME280;5577;42.706;23.160;2023-03-20T05:46:38;94416.41;;;4.88;100.00
11049;BME280;5577;42.706;23.160;2023-03-20T05:49:22;94416.97;;;5.07;100.00
11049;BME280;5577;42.706;23.160;2023-03-20T05:52:06;94413.00;;;5.26;100.00
11049;BME280;5577;42.706;23.160;2023-03-20T05:54:50;94414.75;;;5.39;100.00
11049;BME280;5577;42.706;23.160;2023-03-20T05:57:34;94418.31;;;5.69;100.00
11049;BME280;5577;42.706;23.160;2023-03-20T06:00:18;94406.94;;;5.90;100.00
11049;BME280;5577;42.706;23.160;2023-03-20T06:03:03;94410.16;;;6.13;100.00
11049;BME280;5577;42.706;23.160;2023-03-20T06:05:49;94414.00;;;6.33;100.00
11049;BME280;5577;42.706;23.160;2023-03-20T06:08:33;94404.25;;;6.50;100.00
11049;BME280;5577;42.706;23.160;2023-03-20T06:11:19;94406.66;;;6.72;100.00
11049;BME280;5577;42.706;23.160;2023-03-20T06:14:03;94394.22;;;6.81;100.00
11049;BME280;5577;42.706;23.160;2023-03-20T06:16:47;94399.75;;;6.97;100.00
11049;BME280;5577;42.706;23.160;2023-03-20T06:19:31;94407.44;;;7.10;100.00
11049;BME280;5577;42.706;23.160;2023-03-20T06:22:15;94406.06;;;7.33;100.00
11049;BME280;5577;42.706;23.160;2023-03-20T06:25:00;94406.28;;;7.49;100.00
11049;BME280;5577;42.706;23.160;2023-03-20T06:27:47;94406.41;;;7.61;100.00
11049;BME280;5577;42.706;23.160;2023-03-20T06:30:31;94411.59;;;7.69;100.00
11049;BME280;5577;42.706;23.160;2023-03-20T06:33:15;94407.03;;;7.78;100.00
11049;BME280;5577;42.706;23.160;2023-03-20T06:35:59;94412.03;;;7.92;100.00
11049;BME280;5577;42.706;23.160;2023-03-20T06:38:44;94379.97;;;7.90;100.00
11049;BME280;5577;42.706;23.160;2023-03-20T06:41:28;94406.53;;;8.26;100.00
11049;BME280;5577;42.706;23.160;2023-03-20T06:44:12;94406.94;;;8.48;100.00
11049;BME280;5577;42.706;23.160;2023-03-20T06:46:56;94399.91;;;8.52;100.00
11049;BME280;5577;42.706;23.160;2023-03-20T06:49:40;94405.25;;;8.76;100.00
11049;BME280;5577;42.706;23.160;2023-03-20T06:52:24;94395.72;;;8.96;100.00
11049;BME280;5577;42.706;23.160;2023-03-20T06:55:08;94403.84;;;8.91;100.00
11049;BME280;5577;42.706;23.160;2023-03-20T06:57:53;94396.81;;;9.07;100.00
11049;BME280;5577;42.706;23.160;2023-03-20T07:00:37;94403.09;;;9.27;100.00
11049;BME280;5577;42.706;23.160;2023-03-20T07:03:20;94394.53;;;9.42;99.87
11049;BME280;5577;42.706;23.160;2023-03-20T07:06:05;94393.63;;;9.38;100.00
11049;BME280;5577;42.706;23.160;2023-03-20T07:08:49;94385.72;;;9.50;100.00
11049;BME280;5577;42.706;23.160;2023-03-20T07:11:35;94379.75;;;9.53;100.00
11049;BME280;5577;42.706;23.160;2023-03-20T07:14:20;94384.44;;;9.71;100.00
11049;BME280;5577;42.706;23.160;2023-03-20T07:17:05;94385.00;;;9.65;100.00
11049;BME280;5577;42.706;23.160;2023-03-20T07:19:49;94396.94;;;9.98;100.00
11049;BME280;5577;42.706;23.160;2023-03-20T07:22:33;94400.38;;;9.99;100.00
11049;BME280;5577;42.706;23.160;2023-03-20T07:25:17;94395.63;;;9.92;100.00
11049;BME280;5577;42.706;23.160;2023-03-20T07:28:02;94396.84;;;10.07;100.00
11049;BME280;5577;42.706;23.160;2023-03-20T07:30:46;94386.09;;;9.76;100.00
11049;BME280;5577;42.706;23.160;2023-03-20T07:33:29;94402.06;;;9.79;100.00
11049;BME280;5577;42.706;23.160;2023-03-20T07:36:14;94404.88;;;9.98;100.00
11049;BME280;5577;42.706;23.160;2023-03-20T07:38:58;94392.72;;;10.21;100.00
11049;BME280;5577;42.706;23.160;2023-03-20T07:41:42;94394.66;;;10.36;97.79
11049;BME280;5577;42.706;23.160;2023-03-20T07:44:26;94395.44;;;10.37;95.06
11049;BME280;5577;42.706;23.160;2023-03-20T07:47:10;94403.00;;;10.66;89.24
11049;BME280;5577;42.706;23.160;2023-03-20T07:49:54;94393.78;;;10.75;85.37
11049;BME280;5577;42.706;23.160;2023-03-20T07:52:38;94396.28;;;10.84;83.94
11049;BME280;5577;42.706;23.160;2023-03-20T07:55:23;94392.03;;;11.10;82.52
11049;BME280;5577;42.706;23.160;2023-03-20T07:58:06;94379.72;;;11.18;81.08
11049;BME280;5577;42.706;23.160;2023-03-20T08:00:51;94400.13;;;11.48;79.45
11049;BME280;5577;42.706;23.160;2023-03-20T08:03:35;94375.50;;;11.63;74.73
11049;BME280;5577;42.706;23.160;2023-03-20T08:06:21;94392.50;;;11.97;74.41
11049;BME280;5577;42.706;23.160;2023-03-20T08:09:05;94389.09;;;11.97;73.85
11049;BME280;5577;42.706;23.160;2023-03-20T08:11:49;94393.38;;;11.86;73.57
11049;BME280;5577;42.706;23.160;2023-03-20T08:14:34;94387.88;;;11.94;73.94
11049;BME280;5577;42.706;23.160;2023-03-20T08:17:18;94389.88;;;12.16;72.15
11049;BME280;5577;42.706;23.160;2023-03-20T08:20:03;94400.22;;;12.21;71.47
11049;BME280;5577;42.706;23.160;2023-03-20T08:22:47;94405.13;;;12.38;68.81
11049;BME280;5577;42.706;23.160;2023-03-20T08:25:32;94397.97;;;12.61;67.18
11049;BME280;5577;42.706;23.160;2023-03-20T08:28:17;94404.28;;;12.95;66.57
11049;BME280;5577;42.706;23.160;2023-03-20T08:31:01;94392.22;;;13.20;66.13
11049;BME280;5577;42.706;23.160;2023-03-20T08:33:45;94384.09;;;13.35;64.87
11049;BME280;5577;42.706;23.160;2023-03-20T08:36:29;94398.25;;;13.43;63.23
11049;BME280;5577;42.706;23.160;2023-03-20T08:39:13;94406.91;;;13.62;62.29
11049;BME280;5577;42.706;23.160;2023-03-20T08:41:58;94397.13;;;13.96;60.86
11049;BME280;5577;42.706;23.160;2023-03-20T08:44:42;94394.56;;;14.29;59.83
11049;BME280;5577;42.706;23.160;2023-03-20T08:47:28;94391.59;;;14.67;58.64
11049;BME280;5577;42.706;23.160;2023-03-20T08:50:11;94379.47;;;14.73;56.88
11049;BME280;5577;42.706;23.160;2023-03-20T08:52:55;94387.16;;;14.78;56.36
11049;BME280;5577;42.706;23.160;2023-03-20T08:55:39;94387.66;;;14.94;56.26
11049;BME280;5577;42.706;23.160;2023-03-20T08:58:23;94390.59;;;15.22;55.04
11049;BME280;5577;42.706;23.160;2023-03-20T09:01:08;94383.03;;;15.28;54.57
11049;BME280;5577;42.706;23.160;2023-03-20T09:03:52;94381.44;;;15.67;54.62
11049;BME280;5577;42.706;23.160;2023-03-20T09:06:36;94386.13;;;15.84;53.65
11049;BME280;5577;42.706;23.160;2023-03-20T09:09:20;94369.66;;;15.71;51.38
11049;BME280;5577;42.706;23.160;2023-03-20T09:12:09;94381.28;;;16.03;52.04
11049;BME280;5577;42.706;23.160;2023-03-20T09:14:53;94371.63;;;16.46;51.81
11049;BME280;5577;42.706;23.160;2023-03-20T09:17:37;94342.63;;;16.55;50.08
11049;BME280;5577;42.706;23.160;2023-03-20T09:20:21;94361.41;;;16.86;49.60
11049;BME280;5577;42.706;23.160;2023-03-20T09:23:05;94337.34;;;16.79;50.13
11049;BME280;5577;42.706;23.160;2023-03-20T09:25:49;94355.72;;;17.02;48.16
11049;BME280;5577;42.706;23.160;2023-03-20T09:28:33;94350.78;;;17.36;48.79
11049;BME280;5577;42.706;23.160;2023-03-20T09:31:17;94349.59;;;17.79;46.48
11049;BME280;5577;42.706;23.160;2023-03-20T09:34:01;94345.66;;;18.43;45.20
11049;BME280;5577;42.706;23.160;2023-03-20T09:36:45;94337.81;;;18.76;44.42
11049;BME280;5577;42.706;23.160;2023-03-20T09:39:29;94335.59;;;19.26;42.15
11049;BME280;5577;42.706;23.160;2023-03-20T09:42:46;94325.66;;;19.67;41.31
11049;BME280;5577;42.706;23.160;2023-03-20T09:48:40;94323.19;;;21.37;37.69
11049;BME280;5577;42.706;23.160;2023-03-20T09:51:41;94315.66;;;21.02;38.24
11049;BME280;5577;42.706;23.160;2023-03-20T09:54:34;94307.84;;;21.57;37.19
11049;BME280;5577;42.706;23.160;2023-03-20T09:57:27;94301.81;;;21.72;36.68
11049;BME280;5577;42.706;23.160;2023-03-20T10:03:14;94286.78;;;23.08;33.53
11049;BME280;5577;42.706;23.160;2023-03-20T10:06:02;94284.25;;;22.66;34.73
11049;BME280;5577;42.706;23.160;2023-03-20T10:08:47;94283.31;;;23.08;33.22
11049;BME280;5577;42.706;23.160;2023-03-20T10:11:48;94281.13;;;23.51;32.71
11049;BME280;5577;42.706;23.160;2023-03-20T10:18:03;94272.31;;;24.77;30.40
11049;BME280;5577;42.706;23.160;2023-03-20T10:20:57;94276.13;;;25.42;29.08
11049;BME280;5577;42.706;23.160;2023-03-20T10:26:42;94260.78;;;26.29;27.77
11049;BME280;5577;42.706;23.160;2023-03-20T10:32:51;94253.19;;;26.97;27.14
11049;BME280;5577;42.706;23.160;2023-03-20T10:39:35;94242.09;;;27.89;24.93
11049;BME280;5577;42.706;23.160;2023-03-20T10:42:33;94241.03;;;28.14;24.59
11049;BME280;5577;42.706;23.160;2023-03-20T10:45:34;94244.81;;;28.16;24.40
11049;BME280;5577;42.706;23.160;2023-03-20T10:48:23;94232.16;;;29.23;24.05
11049;BME280;5577;42.706;23.160;2023-03-20T10:51:16;94230.97;;;29.71;23.42
11049;BME280;5577;42.706;23.160;2023-03-20T10:54:03;94226.66;;;28.13;24.44
11049;BME280;5577;42.706;23.160;2023-03-20T10:56:51;94224.06;;;28.46;23.40
11049;BME280;5577;42.706;23.160;2023-03-20T10:59:42;94219.38;;;28.37;23.72
11049;BME280;5577;42.706;23.160;2023-03-20T11:02:28;94218.34;;;29.27;23.38
11049;BME280;5577;42.706;23.160;2023-03-20T11:05:29;94208.94;;;28.95;22.80
11049;BME280;5577;42.706;23.160;2023-03-20T11:08:14;94205.75;;;29.53;22.92
11049;BME280;5577;42.706;23.160;2023-03-20T11:11:00;94204.41;;;30.48;21.91
11049;BME280;5577;42.706;23.160;2023-03-20T11:13:45;94199.50;;;29.85;22.46
11049;BME280;5577;42.706;23.160;2023-03-20T11:16:30;94191.41;;;30.05;22.43
11049;BME280;5577;42.706;23.160;2023-03-20T11:19:19;94160.75;;;30.10;21.60
11049;BME280;5577;42.706;23.160;2023-03-20T11:22:24;94179.19;;;30.00;21.63
11049;BME280;5577;42.706;23.160;2023-03-20T11:25:22;94182.31;;;29.46;21.80
11049;BME280;5577;42.706;23.160;2023-03-20T11:28:33;94170.78;;;29.51;21.95
11049;BME280;5577;42.706;23.160;2023-03-20T11:31:39;94170.81;;;30.04;21.70
11049;BME280;5577;42.706;23.160;2023-03-20T11:34:24;94168.00;;;29.60;21.93
11049;BME280;5577;42.706;23.160;2023-03-20T11:37:26;94164.28;;;29.72;21.88
11049;BME280;5577;42.706;23.160;2023-03-20T11:45:46;94142.66;;;29.83;21.01
11049;BME280;5577;42.706;23.160;2023-03-20T11:51:20;94133.78;;;29.88;22.10
11049;BME280;5577;42.706;23.160;2023-03-20T11:54:06;94141.91;;;29.12;22.40
11049;BME280;5577;42.706;23.160;2023-03-20T11:56:58;94123.66;;;30.96;21.13
11049;BME280;5577;42.706;23.160;2023-03-20T11:59:43;94117.59;;;31.07;19.55
11049;BME280;5577;42.706;23.160;2023-03-20T12:02:27;94113.41;;;30.42;20.82
11049;BME280;5577;42.706;23.160;2023-03-20T12:05:35;94100.88;;;30.21;20.94
11049;BME280;5577;42.706;23.160;2023-03-20T12:08:23;94109.13;;;29.45;21.67
11049;BME280;5577;42.706;23.160;2023-03-20T12:14:37;94104.56;;;31.16;20.32
11049;BME280;5577;42.706;23.160;2023-03-20T12:17:37;94109.34;;;32.07;19.01
11049;BME280;5577;42.706;23.160;2023-03-20T12:29:26;94095.19;;;33.55;17.06
11049;BME280;5577;42.706;23.160;2023-03-20T12:32:18;94086.09;;;35.01;15.60
11049;BME280;5577;42.706;23.160;2023-03-20T12:35:26;94081.28;;;35.18;14.74
11049;BME280;5577;42.706;23.160;2023-03-20T12:38:23;94084.59;;;34.06;15.50
11049;BME280;5577;42.706;23.160;2023-03-20T12:41:14;94078.53;;;33.75;15.86
11049;BME280;5577;42.706;23.160;2023-03-20T12:44:19;94064.75;;;33.05;17.73
11049;BME280;5577;42.706;23.160;2023-03-20T12:50:38;94065.75;;;33.08;16.81
11049;BME280;5577;42.706;23.160;2023-03-20T12:59:52;94052.63;;;34.69;15.59
11049;BME280;5577;42.706;23.160;2023-03-20T13:02:58;94048.03;;;35.73;14.98
11049;BME280;5577;42.706;23.160;2023-03-20T13:18:19;94019.66;;;34.25;15.42
11049;BME280;5577;42.706;23.160;2023-03-20T13:21:09;94024.91;;;32.68;16.66
11049;BME280;5577;42.706;23.160;2023-03-20T13:24:14;94011.16;;;30.49;17.46
11049;BME280;5577;42.706;23.160;2023-03-20T13:39:32;94006.31;;;27.68;20.08
11049;BME280;5577;42.706;23.160;2023-03-20T13:42:20;94008.03;;;26.84;21.47
11049;BME280;5577;42.706;23.160;2023-03-20T13:45:32;93998.81;;;27.00;20.89
11049;BME280;5577;42.706;23.160;2023-03-20T13:48:35;93969.06;;;26.60;21.17
11049;BME280;5577;42.706;23.160;2023-03-20T13:51:38;93994.00;;;26.86;21.10
11049;BME280;5577;42.706;23.160;2023-03-20T14:00:52;93982.59;;;26.42;21.50
11049;BME280;5577;42.706;23.160;2023-03-20T14:03:44;93976.19;;;26.76;20.79
11049;BME280;5577;42.706;23.160;2023-03-20T14:06:46;93971.84;;;26.21;21.44
11049;BME280;5577;42.706;23.160;2023-03-20T14:09:35;93970.72;;;26.58;21.04
11049;BME280;5577;42.706;23.160;2023-03-20T14:12:24;93964.28;;;26.82;20.52
11049;BME280;5577;42.706;23.160;2023-03-20T14:15:10;93962.91;;;26.60;20.22
11049;BME280;5577;42.706;23.160;2023-03-20T14:17:55;93960.31;;;26.47;21.22
11049;BME280;5577;42.706;23.160;2023-03-20T14:20:40;93963.81;;;26.08;20.51
11049;BME280;5577;42.706;23.160;2023-03-20T14:23:47;93963.84;;;26.17;20.65
11049;BME280;5577;42.706;23.160;2023-03-20T14:26:37;93943.63;;;25.79;21.11
11049;BME280;5577;42.706;23.160;2023-03-20T14:35:22;93964.34;;;26.34;20.24
11049;BME280;5577;42.706;23.160;2023-03-20T14:41:07;93924.22;;;24.97;21.32
11049;BME280;5577;42.706;23.160;2023-03-20T14:58:54;93947.06;;;22.75;23.80
11049;BME280;5577;42.706;23.160;2023-03-20T15:04:40;93948.34;;;21.93;24.28
11049;BME280;5577;42.706;23.160;2023-03-20T15:07:28;93951.53;;;21.72;24.58
11049;BME280;5577;42.706;23.160;2023-03-20T15:10:13;93950.81;;;21.52;25.24
11049;BME280;5577;42.706;23.160;2023-03-20T15:12:57;93945.34;;;21.40;25.58
11049;BME280;5577;42.706;23.160;2023-03-20T15:15:57;93949.88;;;21.43;26.00
11049;BME280;5577;42.706;23.160;2023-03-20T15:18:49;93942.13;;;21.45;26.13
11049;BME280;5577;42.706;23.160;2023-03-20T15:21:39;93921.06;;;21.24;26.61
11049;BME280;5577;42.706;23.160;2023-03-20T15:24:29;93939.84;;;21.27;26.58
11049;BME280;5577;42.706;23.160;2023-03-20T15:27:13;93942.59;;;21.24;25.96
11049;BME280;5577;42.706;23.160;2023-03-20T15:29:59;93937.78;;;21.51;26.14
11049;BME280;5577;42.706;23.160;2023-03-20T15:32:45;93940.28;;;21.42;25.69
11049;BME280;5577;42.706;23.160;2023-03-20T15:35:30;93940.16;;;21.65;26.70
11049;BME280;5577;42.706;23.160;2023-03-20T15:38:15;93933.63;;;21.82;26.45
11049;BME280;5577;42.706;23.160;2023-03-20T15:41:06;93938.91;;;21.69;25.86
11049;BME280;5577;42.706;23.160;2023-03-20T15:43:51;93941.88;;;21.75;25.79
11049;BME280;5577;42.706;23.160;2023-03-20T15:46:35;93940.94;;;21.30;26.14
11049;BME280;5577;42.706;23.160;2023-03-20T15:49:20;93940.00;;;21.20;26.88
11049;BME280;5577;42.706;23.160;2023-03-20T15:55:16;93949.19;;;21.03;27.47
11049;BME280;5577;42.706;23.160;2023-03-20T15:58:01;93946.47;;;20.84;27.64
11049;BME280;5577;42.706;23.160;2023-03-20T16:00:47;93946.25;;;20.55;27.71
11049;BME280;5577;42.706;23.160;2023-03-20T16:03:33;93944.38;;;20.33;27.69
11049;BME280;5577;42.706;23.160;2023-03-20T16:06:20;93942.00;;;20.15;28.11
11049;BME280;5577;42.706;23.160;2023-03-20T16:09:06;93950.78;;;19.93;28.52
11049;BME280;5577;42.706;23.160;2023-03-20T16:11:59;93949.25;;;19.68;28.79
11049;BME280;5577;42.706;23.160;2023-03-20T16:14:48;93955.47;;;19.35;29.66
11049;BME280;5577;42.706;23.160;2023-03-20T16:17:32;93953.03;;;19.14;29.63
11049;BME280;5577;42.706;23.160;2023-03-20T16:20:18;93960.06;;;19.05;29.78
11049;BME280;5577;42.706;23.160;2023-03-20T16:23:06;93955.03;;;18.80;29.57
11049;BME280;5577;42.706;23.160;2023-03-20T16:25:56;93919.19;;;18.27;31.26
11049;BME280;5577;42.706;23.160;2023-03-20T16:28:40;93972.41;;;18.28;31.68
11049;BME280;5577;42.706;23.160;2023-03-20T16:31:33;93967.56;;;18.13;32.32
11049;BME280;5577;42.706;23.160;2023-03-20T16:34:22;93975.34;;;17.97;33.23
11049;BME280;5577;42.706;23.160;2023-03-20T16:37:22;93966.41;;;17.70;35.12
11049;BME280;5577;42.706;23.160;2023-03-20T16:43:16;93958.78;;;16.99;37.28
11049;BME280;5577;42.706;23.160;2023-03-20T16:46:04;93967.28;;;16.70;36.46
11049;BME280;5577;42.706;23.160;2023-03-20T16:48:57;93966.91;;;16.71;36.48
11049;BME280;5577;42.706;23.160;2023-03-20T16:51:49;93970.78;;;16.56;37.38
11049;BME280;5577;42.706;23.160;2023-03-20T16:54:35;93966.22;;;16.29;39.71
11049;BME280;5577;42.706;23.160;2023-03-20T16:57:20;93970.44;;;16.09;39.64
11049;BME280;5577;42.706;23.160;2023-03-20T17:00:28;93972.78;;;15.93;40.20
11049;BME280;5577;42.706;23.160;2023-03-20T17:09:17;93963.97;;;15.40;42.28
11049;BME280;5577;42.706;23.160;2023-03-20T17:12:09;93972.31;;;15.28;43.09
11049;BME280;5577;42.706;23.160;2023-03-20T17:14:55;93963.91;;;15.15;43.17
11049;BME280;5577;42.706;23.160;2023-03-20T17:17:39;93973.41;;;15.02;43.17
11049;BME280;5577;42.706;23.160;2023-03-20T17:20:26;93965.75;;;14.87;41.43
11049;BME280;5577;42.706;23.160;2023-03-20T17:23:13;93975.22;;;14.84;41.47
11049;BME280;5577;42.706;23.160;2023-03-20T17:25:58;93945.78;;;14.49;42.52
11049;BME280;5577;42.706;23.160;2023-03-20T17:28:43;93966.34;;;14.52;43.78
11049;BME280;5577;42.706;23.160;2023-03-20T17:31:27;93983.81;;;14.39;44.25